x

Neah Bay, - 6nm North Of Cape Flattery, Wa (traffic Separation Lighted Buoy) (46087) Wave Buoy

4:20 - Fri 29th Jul 2016 All times are PDT. -7 hours from GMT.

  • Sig Wave height 5.9ft
  • Swell Direction
  • Peak Period 8s
  • Average Period 7s
  • Wind
    9mph, 13mph gusts
  • Sea Temp 53°f
  • Aire Temp 56°f
  • Sea Pressure 1016.3mb
  • Neah Bay, - 6nm North Of Cape Flattery, Wa     (traffic Separation Lighted Buoy)
  • Neah Bay, - 6nm North Of Cape Flattery, Wa     (traffic Separation Lighted Buoy)

More Historic Weather Station data

Upgrade to MSW Pro to gain access to the past 30 days of data for over 8000 Wavebouys and Weather Stations around the globe.

Join Pro

Comparision Forecast

View Surf forecast
   
vie 07/29 4:20 6ft 8s 7s 9 13 mph 1016.3mb 53f 56f
3:50 5ft 8s 7s 11 13 mph 1016.2mb 53f 56f
3:20 6ft 8s 7s 13 16 mph 1016.2mb 53f 56f
2:50 6ft 8s 7s 13 16 mph 1016.3mb 53f 56f
2:20 5.5ft 8s 7s 11 13 mph 1016.3mb 53f 56f
1:50 6ft 8s 7s 13 16 mph 1016.3mb 53f 56f
1:20 5.5ft 7s 6s 11 13 mph 1016.5mb 53f 56f
12:50 6ft 8s 7s 9 11 mph 1016.4mb 53f 56f
12:20 6ft 8s 7s 11 13 mph 1016.7mb 53f 56f
jue 07/28 11:50 6ft 7s 6s 9 11 mph 1016.8mb 53f 56f
11:20 5ft 7s 6s 9 11 mph 1017mb 53f 56f
10:50 5.5ft 8s 6s 9
mph
1017mb 53f 56f
10:20 5.5ft 8s 6s 9
mph
1017mb 53f 56f
9:50 5.5ft 8s 6s 9
mph
1017mb 54f 56f
9:20 5.5ft 7s 6s 7 9 mph 1017mb 54f 56f
8:50 5ft 8s 6s 9 11 mph 1017.2mb 54f 56f
8:20 4.5ft 8s 6s 9 11 mph 1017.1mb 54f 55f
7:50 4.5ft 7s 6s 9 11 mph 1017.3mb 54f 56f
7:20 4.5ft 7s 6s 11 13 mph 1017.4mb 54f 56f
6:50 5ft 7s 6s 11
mph
1017.7mb 54f 56f
6:20 4.5ft 8s 6s 7 9 mph 1018.1mb 54f 56f
5:50 5ft 8s 6s 9 11 mph 1018.6mb 54f 56f
5:20 5ft 8s 7s 9
mph
1018.8mb 55f 56f
4:50 5ft 7s 7s 7 9 mph 1018.9mb 55f 55f
4:20 5ft 7s 6s 7 9 mph 1019.1mb 55f 55f
3:50 5ft 7s 6s 4 7 mph 1019.3mb 55f 55f
3:20 5ft 7s 6s 7 9 mph 1019.6mb 55f 55f
2:50 5ft 7s 6s 7 9 mph 1019.7mb 54f 55f
2:20 5ft 7s 6s 7 9 mph 1020mb 55f 55f
1:50 5ft 8s 6s 2 4 mph 1019.9mb 54f 55f
1:20 5ft 8s 6s 7 9 mph 1020.4mb 54f 54f
12:50 5ft 7s 6s 4 7 mph 1020.3mb 54f 54f
12:20 5.5ft 7s 7s 2
mph
1020.2mb 54f 54f
11:50 6ft 7s 7s 2 4 mph 1020.4mb 54f 54f
11:20 5ft 8s 6s 4 7 mph 1020.5mb 53f 53f
10:50 6ft 8s 7s 4
mph
1020.5mb 53f 53f
10:20 6ft 8s 6s 2
mph
1020.4mb 53f 53f
9:50 7ft 8s 7s 2
mph
1020.4mb 53f 52f
9:20 7ft 8s 7s 2 4 mph 1020.1mb 53f 52f
8:50 7ft 8s 7s 2 4 mph 1020.2mb 53f 52f
8:20 7ft 8s 7s  -  2 mph 1020.2mb 53f 52f
7:50 7ft 8s 7s  -  2 mph 1020.3mb 53f 53f
7:20 7ft 8s 7s 2 4 mph 1020.1mb 53f 53f
6:50 7ft 8s 7s 2 4 mph 1020mb 53f 53f
6:20 6ft 8s 7s 4 7 mph 1019.9mb 53f 54f
5:50 6.5ft 8s 7s 4 7 mph 1019.8mb 52f 53f
5:20 6ft 8s 7s 7 9 mph 1019.8mb 52f 53f
4:50 5.5ft 8s 7s 2 4 mph 1019.8mb 52f 53f
4:20 6ft 8s 7s 4
mph
1019.7mb 52f 54f
3:50 6ft 8s 7s 2 4 mph 1019.9mb 53f 54f
3:20 5.5ft 8s 7s 7 9 mph 1020mb 53f 55f
2:50 6ft 8s 7s 7 9 mph 1019.8mb 53f 55f
2:20 6ft 8s 7s 7
mph
1019.7mb 53f 55f
1:50 6ft 8s 7s 9
mph
1019.8mb 53f 55f
1:20 5.5ft 8s 7s 7 9 mph 1019.9mb 53f 55f
12:50 5.5ft 8s 7s 7
mph
1020mb 54f 56f
12:20 5.5ft 8s 6s 7 9 mph 1020mb 54f 56f
mié 07/27 11:50 6ft 7s 6s 7 9 mph 1019.9mb 54f 56f
11:20 5ft 8s 6s 9 11 mph 1020mb 54f 56f
10:50 5ft 7s 6s 9 11 mph 1020.1mb 54f 56f
10:20 5ft 7s 6s 11
mph
1019.9mb 54f 56f
9:50 5ft 7s 6s 9 11 mph 1019.7mb 54f 56f
9:20 5.5ft 7s 6s 9 11 mph 1019.5mb 53f 56f
8:50 5ft 7s 6s 11
mph
1019.4mb 53f 56f
8:20 5ft 7s 6s 11 13 mph 1019.3mb 53f 56f
7:50 5ft 7s 6s 11 13 mph 1019.1mb 53f 56f
7:20 5ft 7s 6s 11 13 mph 1019.2mb 53f 55f
6:50 5ft 7s 6s 13
mph
1019.3mb 54f 54f
6:20 5.5ft 7s 6s 11 13 mph 1019.7mb 54f 54f
5:50 5ft 7s 6s 11
mph
1019.9mb 54f 53f
4:50 5.5ft 7s 6s 9 11 mph 1020.4mb 54f 53f
4:20 5ft 7s 6s 9 11 mph 1020.6mb 54f 53f
3:50 5ft 8s 7s 9 11 mph 1021mb 54f 54f
3:20 5ft 7s 6s 9 11 mph 1021mb 54f 53f
2:50 5ft 7s 7s 9
mph
1021mb 54f 53f
2:20 5ft 8s 7s 7 9 mph 1020.9mb 54f 54f
1:50 5ft 8s 6s 7 9 mph 1021.1mb 54f 54f
1:20 5ft 7s 6s 7 9 mph 1021.3mb 54f 54f
12:50 5ft 7s 6s 7
mph
1021.5mb 54f 54f
12:20 5ft 7s 6s 7 9 mph 1021.5mb 53f 53f
11:50 5ft 7s 6s 7 9 mph 1021.4mb 53f 53f
11:20 5ft 7s 7s 7
mph
1021.3mb 53f 53f
10:50 5ft 7s 6s 4 7 mph 1021.2mb 53f 53f
10:20 6ft 7s 7s 4
mph
1021.2mb 53f 53f
9:50 5.5ft 8s 6s 4
mph
1021.2mb 53f 53f
9:20 6ft 8s 6s 4
mph
1021mb 53f 53f
8:50 5.5ft 8s 6s 4
mph
1020.8mb 53f 53f
8:20 6ft 8s 6s 2 4 mph 1020.6mb 53f 53f
7:50 5.5ft 8s 6s 2 4 mph 1020.6mb 53f 53f
7:20 5ft 7s 6s 4
mph
1020.5mb 53f 53f
6:50 6ft 7s 7s  -  2 mph 1020.2mb 53f 53f
6:20 6ft 8s 7s  -  2 mph 1020.1mb 53f 53f
5:50 5.5ft 7s 7s 2 4 mph 1020mb 53f 54f
5:20 5.5ft 8s 7s 2 4 mph 1020.1mb 53f 54f
4:50 6ft 8s 7s  -  2 mph 1019.9mb 53f 54f
4:20 6ft 8s 7s 2 4 mph 1019.8mb 53f 55f
3:50 6.5ft 8s 7s  -  4 mph 1019.8mb 53f 54f
3:20 5.5ft 8s 7s  -  2 mph 1019.8mb 53f 54f
2:50 5ft 7s 7s 2 4 mph 1019.7mb 53f 54f
2:20 5.5ft 8s 7s 4
mph
1019.7mb 53f 55f
1:50 5ft 7s 7s 4 7 mph 1019.7mb 53f 55f
1:20 5ft 7s 7s 2 4 mph 1019.8mb 53f 55f
12:50 5ft 8s 7s 4
mph
1019.9mb 53f 55f
12:20 5ft 7s 7s 2 4 mph 1020mb 53f 55f
mar 07/26 11:50 4.5ft 7s 7s  -  2 mph 1020.3mb 53f 55f
11:20 5ft 7s 6s 2 4 mph 1020.3mb 53f 55f
10:50 5ft 7s 6s  -  2 mph 1020.5mb 53f 55f
10:20 5ft 7s 6s 2 4 mph 1020.7mb 53f 55f
9:50 5ft 7s 6s 2 4 mph 1020.6mb 54f 55f
9:20 5ft 7s 6s 4 7 mph 1020.6mb 53f 56f
8:50 6ft 9s 7s 4 7 mph 1020.4mb 53f 55f
8:20 5.5ft 7s 6s 4 7 mph 1020.4mb 53f 55f
7:50 6ft 7s 6s 7
mph
1020.4mb 53f 55f
7:20 5.5ft 7s 6s 9 11 mph 1020.4mb 53f 55f
6:50 6ft 7s 6s 9 13 mph 1020.4mb 53f 55f
6:20 6ft 8s 6s 9 11 mph 1020.6mb 53f 55f
5:50 6.5ft 7s 6s 7 9 mph 1020.7mb 53f 55f
5:20 6ft 7s 6s 7
mph
1020.9mb 53f 55f
4:50 5.5ft 7s 6s 7 9 mph 1021.2mb 53f 55f
4:20 6ft 8s 7s 9
mph
1021.3mb 53f 55f
3:50 6ft 8s 7s 9 11 mph 1021.4mb 53f 55f
3:20 6ft 8s 7s 7
mph
1021.4mb 53f 54f
2:50 6.5ft 8s 7s 7 9 mph 1021.7mb 53f 54f
2:20 6.5ft 8s 7s 7 9 mph 1021.8mb 53f 54f
1:50 6ft 8s 7s 7
mph
1021.8mb 53f 54f
1:20 7ft 7s 7s 7
mph
1021.8mb 53f 55f
12:50 6ft 8s 7s 7
mph
1021.8mb 53f 55f
12:20 6.5ft 8s 7s 4 7 mph 1021.8mb 53f 54f
11:50 6.5ft 8s 7s 7 11 mph 1021.9mb 53f 55f
11:20 6.5ft 7s 7s 7
mph
1021.8mb 53f 55f
10:50 6ft 7s 7s 7 9 mph 1021.8mb 53f 55f
10:20 6.5ft 8s 7s 4 7 mph 1021.6mb 53f 54f
9:50 6.5ft 8s 7s 4 7 mph 1021.5mb 53f 54f
9:20 5.5ft 8s 7s 4
mph
1021.6mb 53f 54f
8:50 6.5ft 7s 7s 2 4 mph 1021.4mb 53f 54f
8:20 6.5ft 10s 7s 2 4 mph 1021.4mb 53f 54f
7:50 6ft 7s 6s 4
mph
1021.2mb 53f 54f
7:20 7ft 10s 7s 4
mph
1021mb 53f 55f
6:50 6ft 7s 7s 2 4 mph 1020.8mb 53f 55f
6:20 6.5ft 7s 7s 4
mph
1020.7mb 53f 55f
5:50 6ft 10s 7s 4 7 mph 1020.6mb 53f 55f
5:20 6ft 7s 7s 4
mph
1020.5mb 53f 55f
4:50 7ft 10s 7s 7 9 mph 1020.6mb 53f 56f
4:20 6.5ft 10s 7s 4 7 mph 1020.5mb 53f 55f
3:50 6ft 8s 7s 4 7 mph 1020.4mb 53f 55f
3:20 5.5ft 11s 7s 4 7 mph 1020.4mb 53f 55f
2:50 6.5ft 7s 7s 7
mph
1020.3mb 54f 55f
2:20 6ft 7s 7s 7 9 mph 1020.2mb 54f 56f
1:50 6ft 10s 7s 7 9 mph 1020.2mb 54f 56f
1:20 6ft 9s 7s 7 11 mph 1020.2mb 54f 56f
12:50 6ft 10s 7s 9 11 mph 1020.2mb 55f 57f
12:20 6ft 11s 7s 9 13 mph 1020.1mb 55f 56f
lun 07/25 11:50 5.5ft 9s 7s 9 11 mph 1020mb 55f 56f
11:20 6ft 11s 7s 11
mph
1019.8mb 55f 57f
10:50 6ft 11s 7s 9 11 mph 1019.8mb 55f 56f
10:20 6.5ft 7s 7s 11
mph
1019.7mb 55f 56f
9:50 6ft 10s 7s 11 13 mph 1019.6mb 55f 57f
9:20 6ft 11s 7s 9 11 mph 1019.4mb 55f 56f
8:50 6ft 10s 7s 11 13 mph 1019.3mb 55f 56f
8:20 6ft 10s 7s 9 11 mph 1019.1mb 55f 56f
7:50 7ft 10s 7s 11
mph
1018.9mb 55f 56f
7:20 6.5ft 10s 7s 11
mph
1018.9mb 54f 56f
6:50 7ft 11s 7s 11
mph
1019.2mb 54f 56f
6:20 7ft 10s 7s 11 13 mph 1019.2mb 54f 56f
5:50 6.5ft 9s 7s 9 11 mph 1019.1mb 54f 55f
5:20 7ft 7s 7s 9 11 mph 1019.2mb 54f 55f
4:50 7ft 10s 7s 9 11 mph 1019.3mb 54f 55f
4:20 7ft 10s 7s 9 11 mph 1019.6mb 54f 55f
3:50 7ft 10s 7s 9 11 mph 1019.6mb 54f 55f
3:20 7ft 11s 7s 9 11 mph 1019.6mb 54f 55f
2:50 7ft 11s 7s 7 9 mph 1019.6mb 55f 55f
2:20 6.5ft 11s 7s 7 9 mph 1019.8mb 55f 55f
1:50 6.5ft 10s 7s 9
mph
1019.8mb 55f 56f
1:20 6.5ft 11s 7s 7 9 mph 1019.7mb 55f 55f
12:50 6ft 11s 7s 7 9 mph 1019.6mb 55f 56f
12:20 6ft 10s 7s 9
mph
1019.6mb 55f 56f